F/V Atalante — FVRQ — position and weather

sailwx.info

Track history (hours):
 
Tides and Currents Weather Stations Pressure Air Temp Water Temp Dewpoint Dewpoint Depression Visibility Wind Speed Wind Dir Waves Ship Positions

F/V Atalante

Last reported at 2016-Feb-05 05:13 UTC. Time now 2016-Feb-06 00:18 UTC.
Position N 47°21' W 002°31'.

Length 21 m; draft 3.9 m.

Type: . MMSI: 228854000.

Date/timePositionNaut miles runAvg speedWind from/ knotsBaromVisibWave heightAir tempDewpointWater temp
2016-Feb-05 05:13N 47°21' W 002°31'0 0.0
2016-Feb-05 04:33N 47°21' W 002°31'0 0.1
2016-Feb-05 03:26N 47°21' W 002°31'3 3.7
2016-Feb-05 02:33N 47°19' W 002°34'10 9.8
2016-Feb-05 01:33N 47°11' W 002°44'15 0.9
2016-Feb-04 10:05N 47°08' W 003°04'1 2.6
2016-Feb-04 09:33N 47°07' W 003°03'12 2.4
2016-Feb-04 04:32N 47°15' W 002°49'9 9.3
2016-Feb-04 03:34N 47°19' W 002°38'5 5.0
2016-Feb-04 02:33N 47°21' W 002°31'0 0.0
2016-Feb-04 01:32N 47°21' W 002°31'6 6.5
2016-Feb-04 00:33N 47°15' W 002°35'9 8.6
2016-Feb-03 23:31N 47°06' W 002°35'37 0.7
2016-Feb-01 20:25N 46°29' W 002°37'3 0.7
2016-Feb-01 15:32N 46°31' W 002°40'2 2.2
2016-Feb-01 14:33N 46°30' W 002°38'3 3.0
2016-Feb-01 13:28N 46°27' W 002°35'13 2.2
2016-Feb-01 07:31N 46°38' W 002°46'3 3.3
2016-Feb-01 06:34N 46°41' W 002°48'7 6.4
2016-Feb-01 05:29N 46°47' W 002°46'16 8.3
2016-Feb-01 03:32N 47°03' W 002°40'8 8.6
2016-Feb-01 02:33N 47°11' W 002°37'  
2016-Jan-28 19:33N 47°21' W 002°31'0 0.0
2016-Jan-28 18:33N 47°21' W 002°31'0 0.1
2016-Jan-28 17:33N 47°21' W 002°31'0 0.1
2016-Jan-28 16:33N 47°21' W 002°31'6 6.1
2016-Jan-28 15:33N 47°15' W 002°34'1111.0
2016-Jan-28 14:33N 47°04' W 002°36'44 1.8
2016-Jan-27 14:33N 46°21' W 002°23'3 2.4
2016-Jan-27 13:23N 46°19' W 002°26'2 0.4
2016-Jan-27 09:31N 46°20' W 002°27'5 2.3
2016-Jan-27 07:30N 46°18' W 002°21'47 3.1
2016-Jan-26 16:22N 47°04' W 002°37'7 8.4
2016-Jan-26 15:33N 47°11' W 002°36'8 7.7
2016-Jan-26 14:33N 47°19' W 002°34'3 3.3
2016-Jan-26 13:33N 47°21' W 002°31'0 0.0
2016-Jan-26 12:32N 47°21' W 002°31'0 0.0
2016-Jan-26 11:33N 47°21' W 002°31'0 0.0
2016-Jan-26 10:33N 47°21' W 002°31'0 0.0
2016-Jan-26 09:33N 47°21' W 002°31'0 0.0
2016-Jan-26 08:33N 47°21' W 002°31'0 0.0
2016-Jan-26 07:33N 47°21' W 002°31'0 0.0
2016-Jan-26 06:33N 47°21' W 002°31'0 0.0
2016-Jan-26 05:33N 47°21' W 002°31'  
Track history (hours):
 
Tides and Currents Weather Stations Pressure Air Temp Water Temp Dewpoint Dewpoint Depression Visibility Wind Speed Wind Dir Waves Ship Positions

F/V Atalante

Last reported at 2016-Feb-05 05:13 UTC. Time now 2016-Feb-06 00:18 UTC.
Position N 47°21' W 002°31'.

Length 21 m; draft 3.9 m.

Type: . MMSI: 228854000.

Date/timePositionNaut miles runAvg speedWind from/ knotsBaromVisibWave heightAir tempDewpointWater temp
2016-Feb-05 05:13N 47°21' W 002°31'0 0.0
2016-Feb-05 04:33N 47°21' W 002°31'0 0.1
2016-Feb-05 03:26N 47°21' W 002°31'3 3.7
2016-Feb-05 02:33N 47°19' W 002°34'10 9.8
2016-Feb-05 01:33N 47°11' W 002°44'15 0.9
2016-Feb-04 10:05N 47°08' W 003°04'1 2.6
2016-Feb-04 09:33N 47°07' W 003°03'12 2.4
2016-Feb-04 04:32N 47°15' W 002°49'9 9.3
2016-Feb-04 03:34N 47°19' W 002°38'5 5.0
2016-Feb-04 02:33N 47°21' W 002°31'0 0.0
2016-Feb-04 01:32N 47°21' W 002°31'6 6.5
2016-Feb-04 00:33N 47°15' W 002°35'9 8.6
2016-Feb-03 23:31N 47°06' W 002°35'37 0.7
2016-Feb-01 20:25N 46°29' W 002°37'3 0.7
2016-Feb-01 15:32N 46°31' W 002°40'2 2.2
2016-Feb-01 14:33N 46°30' W 002°38'3 3.0
2016-Feb-01 13:28N 46°27' W 002°35'13 2.2
2016-Feb-01 07:31N 46°38' W 002°46'3 3.3
2016-Feb-01 06:34N 46°41' W 002°48'7 6.4
2016-Feb-01 05:29N 46°47' W 002°46'16 8.3
2016-Feb-01 03:32N 47°03' W 002°40'8 8.6
2016-Feb-01 02:33N 47°11' W 002°37'  
2016-Jan-28 19:33N 47°21' W 002°31'0 0.0
2016-Jan-28 18:33N 47°21' W 002°31'0 0.1
2016-Jan-28 17:33N 47°21' W 002°31'0 0.1
2016-Jan-28 16:33N 47°21' W 002°31'6 6.1
2016-Jan-28 15:33N 47°15' W 002°34'1111.0
2016-Jan-28 14:33N 47°04' W 002°36'44 1.8
2016-Jan-27 14:33N 46°21' W 002°23'3 2.4
2016-Jan-27 13:23N 46°19' W 002°26'2 0.4
2016-Jan-27 09:31N 46°20' W 002°27'5 2.3
2016-Jan-27 07:30N 46°18' W 002°21'47 3.1
2016-Jan-26 16:22N 47°04' W 002°37'7 8.4
2016-Jan-26 15:33N 47°11' W 002°36'8 7.7
2016-Jan-26 14:33N 47°19' W 002°34'3 3.3
2016-Jan-26 13:33N 47°21' W 002°31'0 0.0
2016-Jan-26 12:32N 47°21' W 002°31'0 0.0
2016-Jan-26 11:33N 47°21' W 002°31'0 0.0
2016-Jan-26 10:33N 47°21' W 002°31'0 0.0
2016-Jan-26 09:33N 47°21' W 002°31'0 0.0
2016-Jan-26 08:33N 47°21' W 002°31'0 0.0
2016-Jan-26 07:33N 47°21' W 002°31'0 0.0
2016-Jan-26 06:33N 47°21' W 002°31'0 0.0
2016-Jan-26 05:33N 47°21' W 002°31'  

Dump ship's entire track history